sensor_id;sensor_type;location;lat;lon;timestamp;pressure;altitude;pressure_sealevel;temperature;humidity
39954;BME280;25631;51.516;-0.470;2023-03-23T00:01:55;99404.68;;;7.51;45.86
39954;BME280;25631;51.516;-0.470;2023-03-23T00:04:36;99406.49;;;7.10;46.20
39954;BME280;25631;51.516;-0.470;2023-03-23T00:07:13;99417.27;;;7.11;45.93
39954;BME280;25631;51.516;-0.470;2023-03-23T00:09:50;99428.08;;;6.90;46.47
39954;BME280;25631;51.516;-0.470;2023-03-23T00:12:29;99428.01;;;7.46;45.95
39954;BME280;25631;51.516;-0.470;2023-03-23T00:15:08;99427.01;;;7.41;46.19
39954;BME280;25631;51.516;-0.470;2023-03-23T00:17:44;99425.21;;;7.17;45.85
39954;BME280;25631;51.516;-0.470;2023-03-23T00:20:21;99440.67;;;7.33;45.83
39954;BME280;25631;51.516;-0.470;2023-03-23T00:22:57;99445.19;;;7.40;45.35
39954;BME280;25631;51.516;-0.470;2023-03-23T00:25:34;99439.46;;;7.42;45.16
39954;BME280;25631;51.516;-0.470;2023-03-23T00:28:10;99445.82;;;7.70;44.90
39954;BME280;25631;51.516;-0.470;2023-03-23T00:30:46;99443.81;;;7.37;44.99
39954;BME280;25631;51.516;-0.470;2023-03-23T00:33:24;99457.53;;;7.66;44.74
39954;BME280;25631;51.516;-0.470;2023-03-23T00:36:00;99456.24;;;7.36;44.63
39954;BME280;25631;51.516;-0.470;2023-03-23T00:38:37;99461.06;;;7.18;44.87
39954;BME280;25631;51.516;-0.470;2023-03-23T00:41:15;99466.70;;;7.38;44.93
39954;BME280;25631;51.516;-0.470;2023-03-23T00:43:51;99478.53;;;7.57;44.58
39954;BME280;25631;51.516;-0.470;2023-03-23T00:46:28;99485.79;;;7.85;44.37
39954;BME280;25631;51.516;-0.470;2023-03-23T00:49:04;99480.32;;;8.04;44.11
39954;BME280;25631;51.516;-0.470;2023-03-23T00:51:42;99477.39;;;8.10;44.01
39954;BME280;25631;51.516;-0.470;2023-03-23T00:54:19;99480.65;;;8.50;43.66
39954;BME280;25631;51.516;-0.470;2023-03-23T00:56:56;99483.58;;;8.48;43.39
39954;BME280;25631;51.516;-0.470;2023-03-23T00:59:33;99489.49;;;8.33;41.33
39954;BME280;25631;51.516;-0.470;2023-03-23T01:02:09;99491.10;;;8.28;40.37
39954;BME280;25631;51.516;-0.470;2023-03-23T01:04:46;99484.82;;;8.29;40.03
39954;BME280;25631;51.516;-0.470;2023-03-23T01:07:22;99477.00;;;8.39;40.05
39954;BME280;25631;51.516;-0.470;2023-03-23T01:09:59;99468.00;;;8.21;40.36
39954;BME280;25631;51.516;-0.470;2023-03-23T01:12:35;99474.51;;;8.34;40.48
39954;BME280;25631;51.516;-0.470;2023-03-23T01:15:14;99497.92;;;8.30;40.49
39954;BME280;25631;51.516;-0.470;2023-03-23T01:17:51;99497.76;;;8.24;40.65
39954;BME280;25631;51.516;-0.470;2023-03-23T01:20:28;99502.73;;;8.39;41.39
39954;BME280;25631;51.516;-0.470;2023-03-23T01:23:05;99500.33;;;8.07;42.39
39954;BME280;25631;51.516;-0.470;2023-03-23T01:25:41;99504.19;;;7.70;43.05
39954;BME280;25631;51.516;-0.470;2023-03-23T01:28:17;99512.55;;;8.16;43.38
39954;BME280;25631;51.516;-0.470;2023-03-23T01:30:59;99518.01;;;7.61;43.58
39954;BME280;25631;51.516;-0.470;2023-03-23T01:33:36;99511.73;;;7.62;43.74
39954;BME280;25631;51.516;-0.470;2023-03-23T01:36:15;99508.67;;;7.84;43.81
39954;BME280;25631;51.516;-0.470;2023-03-23T01:38:52;99515.14;;;7.79;43.75
39954;BME280;25631;51.516;-0.470;2023-03-23T01:41:30;99512.21;;;8.11;43.66
39954;BME280;25631;51.516;-0.470;2023-03-23T01:44:59;99512.58;;;8.10;43.59
39954;BME280;25631;51.516;-0.470;2023-03-23T01:48:00;99519.82;;;7.53;43.60
39954;BME280;25631;51.516;-0.470;2023-03-23T01:50:44;99529.29;;;7.41;43.65
39954;BME280;25631;51.516;-0.470;2023-03-23T01:53:26;99528.61;;;7.48;43.56
39954;BME280;25631;51.516;-0.470;2023-03-23T01:56:06;99527.21;;;7.32;43.62
39954;BME280;25631;51.516;-0.470;2023-03-23T01:58:44;99528.64;;;7.80;43.21
39954;BME280;25631;51.516;-0.470;2023-03-23T02:01:21;99531.37;;;7.87;43.03
39954;BME280;25631;51.516;-0.470;2023-03-23T02:03:58;99534.17;;;7.71;42.95
39954;BME280;25631;51.516;-0.470;2023-03-23T02:06:34;99527.49;;;7.60;43.00
39954;BME280;25631;51.516;-0.470;2023-03-23T02:09:11;99537.33;;;7.81;42.80
39954;BME280;25631;51.516;-0.470;2023-03-23T02:11:48;99525.08;;;7.29;43.13
39954;BME280;25631;51.516;-0.470;2023-03-23T02:14:26;99528.79;;;7.49;43.10
39954;BME280;25631;51.516;-0.470;2023-03-23T02:17:07;99523.46;;;7.53;43.06
39954;BME280;25631;51.516;-0.470;2023-03-23T02:20:03;99518.76;;;7.64;42.68
39954;BME280;25631;51.516;-0.470;2023-03-23T02:22:53;99525.30;;;7.72;42.68
39954;BME280;25631;51.516;-0.470;2023-03-23T02:25:53;99523.00;;;7.88;42.34
39954;BME280;25631;51.516;-0.470;2023-03-23T02:31:02;99520.21;;;7.57;42.41
39954;BME280;25631;51.516;-0.470;2023-03-23T02:33:45;99523.13;;;7.44;42.22
39954;BME280;25631;51.516;-0.470;2023-03-23T02:36:29;99527.06;;;7.34;42.15
39954;BME280;25631;51.516;-0.470;2023-03-23T02:39:10;99528.28;;;7.58;42.33
39954;BME280;25631;51.516;-0.470;2023-03-23T02:41:51;99534.86;;;7.85;42.34
39954;BME280;25631;51.516;-0.470;2023-03-23T02:44:30;99538.20;;;7.37;42.31
39954;BME280;25631;51.516;-0.470;2023-03-23T02:47:11;99541.24;;;7.41;42.27
39954;BME280;25631;51.516;-0.470;2023-03-23T02:49:56;99541.82;;;7.52;42.39
39954;BME280;25631;51.516;-0.470;2023-03-23T02:52:35;99542.98;;;7.43;42.22
39954;BME280;25631;51.516;-0.470;2023-03-23T02:55:13;99545.80;;;7.64;42.32
39954;BME280;25631;51.516;-0.470;2023-03-23T02:57:52;99541.78;;;7.43;42.35
39954;BME280;25631;51.516;-0.470;2023-03-23T03:00:29;99546.24;;;7.46;42.41
39954;BME280;25631;51.516;-0.470;2023-03-23T03:03:10;99548.03;;;7.36;42.42
39954;BME280;25631;51.516;-0.470;2023-03-23T03:05:55;99552.97;;;7.46;42.47
39954;BME280;25631;51.516;-0.470;2023-03-23T03:08:38;99545.21;;;7.46;42.23
39954;BME280;25631;51.516;-0.470;2023-03-23T03:11:18;99552.32;;;7.41;42.47
39954;BME280;25631;51.516;-0.470;2023-03-23T03:14:00;99543.38;;;7.78;42.35
39954;BME280;25631;51.516;-0.470;2023-03-23T03:16:42;99547.72;;;7.47;42.36
39954;BME280;25631;51.516;-0.470;2023-03-23T03:19:24;99548.32;;;7.15;42.58
39954;BME280;25631;51.516;-0.470;2023-03-23T03:22:02;99552.55;;;7.00;42.82
39954;BME280;25631;51.516;-0.470;2023-03-23T03:24:40;99547.95;;;7.30;42.68
39954;BME280;25631;51.516;-0.470;2023-03-23T03:27:19;99551.31;;;7.20;42.67
39954;BME280;25631;51.516;-0.470;2023-03-23T03:29:58;99550.99;;;7.60;42.68
39954;BME280;25631;51.516;-0.470;2023-03-23T03:32:39;99551.12;;;7.24;42.73
39954;BME280;25631;51.516;-0.470;2023-03-23T03:35:17;99550.37;;;7.22;42.76
39954;BME280;25631;51.516;-0.470;2023-03-23T03:37:54;99550.97;;;7.20;42.93
39954;BME280;25631;51.516;-0.470;2023-03-23T03:40:31;99549.58;;;7.10;43.06
39954;BME280;25631;51.516;-0.470;2023-03-23T03:43:07;99549.56;;;7.27;42.94
39954;BME280;25631;51.516;-0.470;2023-03-23T03:45:44;99551.73;;;7.25;42.95
39954;BME280;25631;51.516;-0.470;2023-03-23T03:48:21;99552.33;;;7.15;43.03
39954;BME280;25631;51.516;-0.470;2023-03-23T03:50:57;99556.74;;;7.10;43.32
39954;BME280;25631;51.516;-0.470;2023-03-23T03:53:34;99554.22;;;7.19;43.14
39954;BME280;25631;51.516;-0.470;2023-03-23T03:56:10;99558.62;;;7.15;43.23
39954;BME280;25631;51.516;-0.470;2023-03-23T03:58:47;99557.41;;;7.12;43.30
39954;BME280;25631;51.516;-0.470;2023-03-23T04:01:23;99554.99;;;7.14;43.27
39954;BME280;25631;51.516;-0.470;2023-03-23T04:04:00;99556.71;;;7.26;43.08
39954;BME280;25631;51.516;-0.470;2023-03-23T04:06:36;99557.86;;;7.07;43.11
39954;BME280;25631;51.516;-0.470;2023-03-23T04:09:13;99565.33;;;7.08;42.97
39954;BME280;25631;51.516;-0.470;2023-03-23T04:11:49;99563.07;;;7.39;42.96
39954;BME280;25631;51.516;-0.470;2023-03-23T04:14:25;99567.84;;;7.15;42.84
39954;BME280;25631;51.516;-0.470;2023-03-23T04:17:02;99575.70;;;6.58;43.11
39954;BME280;25631;51.516;-0.470;2023-03-23T04:19:39;99570.83;;;6.68;42.97
39954;BME280;25631;51.516;-0.470;2023-03-23T04:22:15;99568.15;;;7.21;42.83
39954;BME280;25631;51.516;-0.470;2023-03-23T04:24:52;99582.03;;;6.81;42.92
39954;BME280;25631;51.516;-0.470;2023-03-23T04:27:28;99584.99;;;6.88;42.78
39954;BME280;25631;51.516;-0.470;2023-03-23T04:30:06;99586.76;;;6.91;42.76
39954;BME280;25631;51.516;-0.470;2023-03-23T04:32:42;99581.56;;;6.94;42.61
39954;BME280;25631;51.516;-0.470;2023-03-23T04:35:20;99581.61;;;6.84;42.61
39954;BME280;25631;51.516;-0.470;2023-03-23T04:37:57;99587.97;;;6.46;42.73
39954;BME280;25631;51.516;-0.470;2023-03-23T04:40:36;99584.44;;;6.28;43.01
39954;BME280;25631;51.516;-0.470;2023-03-23T04:43:12;99586.90;;;6.76;42.86
39954;BME280;25631;51.516;-0.470;2023-03-23T04:45:53;99587.34;;;6.72;42.72
39954;BME280;25631;51.516;-0.470;2023-03-23T04:48:30;99586.67;;;6.83;42.72
39954;BME280;25631;51.516;-0.470;2023-03-23T04:51:07;99592.33;;;7.07;42.50
39954;BME280;25631;51.516;-0.470;2023-03-23T04:53:43;99590.90;;;6.94;42.66
39954;BME280;25631;51.516;-0.470;2023-03-23T04:56:20;99596.27;;;6.64;43.12
39954;BME280;25631;51.516;-0.470;2023-03-23T04:58:56;99594.16;;;7.00;42.68
39954;BME280;25631;51.516;-0.470;2023-03-23T05:01:33;99594.29;;;7.25;42.70
39954;BME280;25631;51.516;-0.470;2023-03-23T05:04:09;99592.76;;;6.78;42.89
39954;BME280;25631;51.516;-0.470;2023-03-23T05:06:46;99594.55;;;7.11;43.02
39954;BME280;25631;51.516;-0.470;2023-03-23T05:09:22;99595.83;;;7.08;42.96
39954;BME280;25631;51.516;-0.470;2023-03-23T05:12:04;99599.98;;;7.18;42.94
39954;BME280;25631;51.516;-0.470;2023-03-23T05:14:40;99599.45;;;7.36;43.00
39954;BME280;25631;51.516;-0.470;2023-03-23T05:17:17;99606.44;;;7.11;43.08
39954;BME280;25631;51.516;-0.470;2023-03-23T05:19:53;99606.36;;;7.30;43.11
39954;BME280;25631;51.516;-0.470;2023-03-23T05:22:30;99608.20;;;7.10;43.13
39954;BME280;25631;51.516;-0.470;2023-03-23T05:25:08;99614.90;;;7.16;43.24
39954;BME280;25631;51.516;-0.470;2023-03-23T05:27:45;99612.22;;;7.15;43.33
39954;BME280;25631;51.516;-0.470;2023-03-23T05:30:22;99606.90;;;6.97;43.32
39954;BME280;25631;51.516;-0.470;2023-03-23T05:32:58;99616.59;;;7.10;43.50
39954;BME280;25631;51.516;-0.470;2023-03-23T05:35:35;99614.29;;;6.90;43.68
39954;BME280;25631;51.516;-0.470;2023-03-23T05:38:11;99610.52;;;6.93;43.77
39954;BME280;25631;51.516;-0.470;2023-03-23T05:40:48;99606.95;;;6.79;43.99
39954;BME280;25631;51.516;-0.470;2023-03-23T05:43:24;99605.83;;;6.97;43.79
39954;BME280;25631;51.516;-0.470;2023-03-23T05:46:01;99604.53;;;7.03;43.74
39954;BME280;25631;51.516;-0.470;2023-03-23T05:48:37;99599.35;;;6.82;43.91
39954;BME280;25631;51.516;-0.470;2023-03-23T05:51:13;99599.00;;;7.09;44.13
39954;BME280;25631;51.516;-0.470;2023-03-23T05:53:50;99596.83;;;6.65;44.36
39954;BME280;25631;51.516;-0.470;2023-03-23T05:56:26;99598.85;;;6.84;44.28
39954;BME280;25631;51.516;-0.470;2023-03-23T05:59:03;99596.23;;;7.04;44.48
39954;BME280;25631;51.516;-0.470;2023-03-23T06:01:39;99596.96;;;6.93;44.40
39954;BME280;25631;51.516;-0.470;2023-03-23T06:04:16;99594.10;;;6.84;44.50
39954;BME280;25631;51.516;-0.470;2023-03-23T06:06:53;99597.95;;;6.62;44.43
39954;BME280;25631;51.516;-0.470;2023-03-23T06:09:30;99595.62;;;6.68;44.66
39954;BME280;25631;51.516;-0.470;2023-03-23T06:12:07;99592.29;;;6.68;44.54
39954;BME280;25631;51.516;-0.470;2023-03-23T06:14:44;99589.15;;;6.60;44.61
39954;BME280;25631;51.516;-0.470;2023-03-23T06:17:20;99588.70;;;6.67;44.56
39954;BME280;25631;51.516;-0.470;2023-03-23T06:19:57;99592.01;;;7.04;44.51
39954;BME280;25631;51.516;-0.470;2023-03-23T06:22:33;99596.71;;;6.96;44.45
39954;BME280;25631;51.516;-0.470;2023-03-23T06:25:10;99594.56;;;6.37;44.44
39954;BME280;25631;51.516;-0.470;2023-03-23T06:27:47;99593.70;;;7.02;44.34
39954;BME280;25631;51.516;-0.470;2023-03-23T06:30:23;99593.53;;;7.12;44.47
39954;BME280;25631;51.516;-0.470;2023-03-23T06:33:00;99590.46;;;6.70;44.58
39954;BME280;25631;51.516;-0.470;2023-03-23T06:35:37;99592.64;;;6.78;44.65
39954;BME280;25631;51.516;-0.470;2023-03-23T06:38:13;99595.75;;;6.88;44.71
39954;BME280;25631;51.516;-0.470;2023-03-23T06:40:52;99596.20;;;7.07;44.76
39954;BME280;25631;51.516;-0.470;2023-03-23T06:43:29;99589.35;;;6.93;44.79
39954;BME280;25631;51.516;-0.470;2023-03-23T06:46:05;99594.54;;;6.87;44.84
39954;BME280;25631;51.516;-0.470;2023-03-23T06:48:42;99593.10;;;6.90;44.81
39954;BME280;25631;51.516;-0.470;2023-03-23T06:51:19;99590.23;;;6.95;44.87
39954;BME280;25631;51.516;-0.470;2023-03-23T06:53:56;99590.40;;;6.75;45.24
39954;BME280;25631;51.516;-0.470;2023-03-23T06:56:32;99591.62;;;7.02;45.22
39954;BME280;25631;51.516;-0.470;2023-03-23T06:59:09;99595.25;;;7.11;45.24
39954;BME280;25631;51.516;-0.470;2023-03-23T07:01:45;99593.26;;;7.15;45.51
39954;BME280;25631;51.516;-0.470;2023-03-23T07:04:22;99587.47;;;6.88;45.85
39954;BME280;25631;51.516;-0.470;2023-03-23T07:06:58;99583.58;;;7.17;45.58
39954;BME280;25631;51.516;-0.470;2023-03-23T07:09:35;99578.80;;;7.08;45.69
39954;BME280;25631;51.516;-0.470;2023-03-23T07:12:11;99575.32;;;7.11;45.66
39954;BME280;25631;51.516;-0.470;2023-03-23T07:14:48;99573.69;;;7.28;45.68
39954;BME280;25631;51.516;-0.470;2023-03-23T07:17:24;99570.64;;;7.20;45.68
39954;BME280;25631;51.516;-0.470;2023-03-23T07:20:01;99570.99;;;7.34;45.72
39954;BME280;25631;51.516;-0.470;2023-03-23T07:22:37;99570.58;;;7.09;45.79
39954;BME280;25631;51.516;-0.470;2023-03-23T07:25:14;99570.75;;;7.44;45.88
39954;BME280;25631;51.516;-0.470;2023-03-23T07:27:50;99577.68;;;7.44;46.00
39954;BME280;25631;51.516;-0.470;2023-03-23T07:30:27;99580.94;;;7.50;45.91
39954;BME280;25631;51.516;-0.470;2023-03-23T07:33:05;99584.21;;;7.59;45.85
39954;BME280;25631;51.516;-0.470;2023-03-23T07:35:42;99595.59;;;7.40;45.74
39954;BME280;25631;51.516;-0.470;2023-03-23T07:38:19;99595.40;;;7.36;45.65
39954;BME280;25631;51.516;-0.470;2023-03-23T07:40:56;99600.38;;;7.59;45.50
39954;BME280;25631;51.516;-0.470;2023-03-23T07:43:32;99600.37;;;7.71;45.41
39954;BME280;25631;51.516;-0.470;2023-03-23T07:46:09;99604.02;;;7.63;45.05
39954;BME280;25631;51.516;-0.470;2023-03-23T07:48:45;99597.84;;;7.57;44.68
39954;BME280;25631;51.516;-0.470;2023-03-23T07:51:22;99598.57;;;7.95;44.32
39954;BME280;25631;51.516;-0.470;2023-03-23T07:53:59;99601.59;;;7.83;44.24
39954;BME280;25631;51.516;-0.470;2023-03-23T07:56:36;99605.08;;;7.75;43.95
39954;BME280;25631;51.516;-0.470;2023-03-23T07:59:13;99606.28;;;7.55;43.85
39954;BME280;25631;51.516;-0.470;2023-03-23T08:01:49;99611.11;;;8.07;43.72
39954;BME280;25631;51.516;-0.470;2023-03-23T08:04:26;99613.51;;;7.85;43.51
39954;BME280;25631;51.516;-0.470;2023-03-23T08:07:03;99628.45;;;7.92;43.27
39954;BME280;25631;51.516;-0.470;2023-03-23T08:09:39;99625.81;;;8.08;42.86
39954;BME280;25631;51.516;-0.470;2023-03-23T08:12:16;99622.54;;;7.73;42.60
39954;BME280;25631;51.516;-0.470;2023-03-23T08:14:52;99629.93;;;7.72;42.73
39954;BME280;25631;51.516;-0.470;2023-03-23T08:17:29;99618.00;;;7.42;42.37
39954;BME280;25631;51.516;-0.470;2023-03-23T08:20:06;99610.43;;;8.12;41.89
39954;BME280;25631;51.516;-0.470;2023-03-23T08:22:50;99613.34;;;7.99;41.93
39954;BME280;25631;51.516;-0.470;2023-03-23T08:25:27;99620.75;;;8.66;41.66
39954;BME280;25631;51.516;-0.470;2023-03-23T08:28:04;99626.76;;;7.93;41.10
39954;BME280;25631;51.516;-0.470;2023-03-23T08:30:41;99628.33;;;7.92;41.10
39954;BME280;25631;51.516;-0.470;2023-03-23T08:33:18;99626.15;;;8.16;41.04
39954;BME280;25631;51.516;-0.470;2023-03-23T08:35:56;99624.05;;;8.30;41.13
39954;BME280;25631;51.516;-0.470;2023-03-23T08:38:33;99615.49;;;8.34;41.03
39954;BME280;25631;51.516;-0.470;2023-03-23T08:41:09;99612.79;;;8.25;41.26
39954;BME280;25631;51.516;-0.470;2023-03-23T08:43:46;99619.24;;;8.43;41.44
39954;BME280;25631;51.516;-0.470;2023-03-23T08:46:24;99616.68;;;8.35;41.17
39954;BME280;25631;51.516;-0.470;2023-03-23T08:49:01;99617.24;;;8.65;40.86
39954;BME280;25631;51.516;-0.470;2023-03-23T08:51:38;99620.91;;;8.28;41.02
39954;BME280;25631;51.516;-0.470;2023-03-23T08:54:14;99625.79;;;8.37;41.22
39954;BME280;25631;51.516;-0.470;2023-03-23T08:56:50;99620.54;;;8.33;41.60
39954;BME280;25631;51.516;-0.470;2023-03-23T08:59:28;99617.82;;;8.54;41.03
39954;BME280;25631;51.516;-0.470;2023-03-23T09:02:04;99619.33;;;9.12;41.06
39954;BME280;25631;51.516;-0.470;2023-03-23T09:04:41;99623.45;;;8.64;41.06
39954;BME280;25631;51.516;-0.470;2023-03-23T09:07:17;99628.80;;;8.75;40.81
39954;BME280;25631;51.516;-0.470;2023-03-23T09:09:54;99626.54;;;8.35;40.93
39954;BME280;25631;51.516;-0.470;2023-03-23T09:12:30;99631.03;;;8.84;40.99
39954;BME280;25631;51.516;-0.470;2023-03-23T09:15:08;99623.53;;;9.09;40.86
39954;BME280;25631;51.516;-0.470;2023-03-23T09:17:47;99625.56;;;8.67;40.98
39954;BME280;25631;51.516;-0.470;2023-03-23T09:20:27;99622.88;;;9.45;40.69
39954;BME280;25631;51.516;-0.470;2023-03-23T09:23:04;99617.46;;;9.20;40.18
39954;BME280;25631;51.516;-0.470;2023-03-23T09:25:40;99631.42;;;8.67;39.79
39954;BME280;25631;51.516;-0.470;2023-03-23T09:28:17;99617.73;;;9.20;39.09
39954;BME280;25631;51.516;-0.470;2023-03-23T09:30:54;99612.24;;;9.17;39.03
39954;BME280;25631;51.516;-0.470;2023-03-23T09:33:32;99619.01;;;9.52;38.95
39954;BME280;25631;51.516;-0.470;2023-03-23T09:36:08;99616.23;;;8.78;38.91
39954;BME280;25631;51.516;-0.470;2023-03-23T09:38:45;99618.53;;;9.22;38.79
39954;BME280;25631;51.516;-0.470;2023-03-23T09:41:36;99612.98;;;9.30;39.25
39954;BME280;25631;51.516;-0.470;2023-03-23T09:44:24;99615.88;;;9.30;39.40
39954;BME280;25631;51.516;-0.470;2023-03-23T09:47:10;99611.01;;;9.39;38.96
39954;BME280;25631;51.516;-0.470;2023-03-23T09:49:53;99611.74;;;9.25;38.48
39954;BME280;25631;51.516;-0.470;2023-03-23T09:52:38;99632.61;;;9.16;38.17
39954;BME280;25631;51.516;-0.470;2023-03-23T09:55:17;99605.52;;;9.81;38.14
39954;BME280;25631;51.516;-0.470;2023-03-23T09:57:59;99617.57;;;9.70;38.18
39954;BME280;25631;51.516;-0.470;2023-03-23T10:00:39;99616.17;;;9.47;38.35
39954;BME280;25631;51.516;-0.470;2023-03-23T10:03:21;99621.48;;;9.63;38.54
39954;BME280;25631;51.516;-0.470;2023-03-23T10:05:58;99634.26;;;9.95;38.55
39954;BME280;25631;51.516;-0.470;2023-03-23T10:08:44;99632.70;;;9.45;38.72
39954;BME280;25631;51.516;-0.470;2023-03-23T10:11:30;99616.90;;;9.96;38.37
39954;BME280;25631;51.516;-0.470;2023-03-23T10:14:19;99634.38;;;9.85;37.94
39954;BME280;25631;51.516;-0.470;2023-03-23T10:17:07;99627.54;;;9.39;38.49
39954;BME280;25631;51.516;-0.470;2023-03-23T10:19:55;99624.02;;;9.76;38.33
39954;BME280;25631;51.516;-0.470;2023-03-23T10:22:40;99629.29;;;10.07;38.04
39954;BME280;25631;51.516;-0.470;2023-03-23T10:25:21;99630.37;;;9.76;37.80
39954;BME280;25631;51.516;-0.470;2023-03-23T10:28:01;99664.50;;;9.36;37.84
39954;BME280;25631;51.516;-0.470;2023-03-23T10:30:42;99637.32;;;9.43;37.75
39954;BME280;25631;51.516;-0.470;2023-03-23T10:33:23;99635.01;;;10.03;37.62
39954;BME280;25631;51.516;-0.470;2023-03-23T10:36:07;99640.45;;;9.27;37.94
39954;BME280;25631;51.516;-0.470;2023-03-23T10:38:48;99631.23;;;9.62;37.83
39954;BME280;25631;51.516;-0.470;2023-03-23T10:41:25;99635.79;;;9.43;37.94
39954;BME280;25631;51.516;-0.470;2023-03-23T10:44:10;99631.18;;;9.68;37.93
39954;BME280;25631;51.516;-0.470;2023-03-23T10:46:53;99635.80;;;10.19;37.76
39954;BME280;25631;51.516;-0.470;2023-03-23T10:49:37;99630.08;;;10.46;37.44
39954;BME280;25631;51.516;-0.470;2023-03-23T10:52:25;99641.09;;;10.28;37.84
39954;BME280;25631;51.516;-0.470;2023-03-23T10:55:05;99643.09;;;10.29;39.16
39954;BME280;25631;51.516;-0.470;2023-03-23T10:57:45;99649.74;;;9.72;40.20
39954;BME280;25631;51.516;-0.470;2023-03-23T11:00:24;99631.03;;;10.12;40.11
39954;BME280;25631;51.516;-0.470;2023-03-23T11:03:04;99627.57;;;9.99;39.77
39954;BME280;25631;51.516;-0.470;2023-03-23T11:05:43;99631.02;;;9.89;39.50
39954;BME280;25631;51.516;-0.470;2023-03-23T11:08:21;99635.15;;;10.24;39.58
39954;BME280;25631;51.516;-0.470;2023-03-23T11:11:07;99619.61;;;10.05;39.31
39954;BME280;25631;51.516;-0.470;2023-03-23T11:13:45;99614.69;;;10.25;39.09
39954;BME280;25631;51.516;-0.470;2023-03-23T11:16:23;99614.19;;;10.31;38.61
39954;BME280;25631;51.516;-0.470;2023-03-23T11:19:12;99613.38;;;9.94;38.76
39954;BME280;25631;51.516;-0.470;2023-03-23T11:21:51;99601.34;;;10.35;37.92
39954;BME280;25631;51.516;-0.470;2023-03-23T11:24:29;99618.80;;;9.86;38.48
39954;BME280;25631;51.516;-0.470;2023-03-23T11:27:06;99614.55;;;10.88;37.79
39954;BME280;25631;51.516;-0.470;2023-03-23T11:29:48;99623.81;;;10.11;38.51
39954;BME280;25631;51.516;-0.470;2023-03-23T11:32:29;99646.49;;;10.22;38.34
39954;BME280;25631;51.516;-0.470;2023-03-23T11:35:16;99624.79;;;10.56;38.38
39954;BME280;25631;51.516;-0.470;2023-03-23T11:37:54;99615.92;;;11.02;38.08
39954;BME280;25631;51.516;-0.470;2023-03-23T11:40:32;99609.49;;;10.74;38.13
39954;BME280;25631;51.516;-0.470;2023-03-23T11:43:12;99618.44;;;10.56;37.88
39954;BME280;25631;51.516;-0.470;2023-03-23T11:45:56;99630.64;;;10.51;37.93
39954;BME280;25631;51.516;-0.470;2023-03-23T11:48:40;99632.69;;;11.27;38.02
39954;BME280;25631;51.516;-0.470;2023-03-23T11:51:23;99632.10;;;11.25;37.70
39954;BME280;25631;51.516;-0.470;2023-03-23T11:54:09;99633.49;;;10.56;37.94
39954;BME280;25631;51.516;-0.470;2023-03-23T11:56:48;99640.39;;;10.00;38.79
39954;BME280;25631;51.516;-0.470;2023-03-23T11:59:28;99629.43;;;10.66;38.83
39954;BME280;25631;51.516;-0.470;2023-03-23T12:02:23;99633.22;;;9.66;38.63
39954;BME280;25631;51.516;-0.470;2023-03-23T12:05:20;99612.96;;;10.87;38.11
39954;BME280;25631;51.516;-0.470;2023-03-23T12:08:16;99600.15;;;11.59;37.73
39954;BME280;25631;51.516;-0.470;2023-03-23T12:11:01;99605.50;;;11.49;37.86
39954;BME280;25631;51.516;-0.470;2023-03-23T12:13:55;99612.47;;;11.19;37.79
39954;BME280;25631;51.516;-0.470;2023-03-23T12:16:50;99612.00;;;11.60;37.09
39954;BME280;25631;51.516;-0.470;2023-03-23T12:19:37;99595.01;;;11.87;36.52
39954;BME280;25631;51.516;-0.470;2023-03-23T12:22:28;99604.25;;;11.18;36.37
39954;BME280;25631;51.516;-0.470;2023-03-23T12:25:22;99609.36;;;10.80;36.20
39954;BME280;25631;51.516;-0.470;2023-03-23T12:28:03;99607.26;;;11.51;36.05
39954;BME280;25631;51.516;-0.470;2023-03-23T12:30:47;99612.47;;;11.22;36.30
39954;BME280;25631;51.516;-0.470;2023-03-23T12:33:33;99612.09;;;11.72;36.65
39954;BME280;25631;51.516;-0.470;2023-03-23T12:36:23;99609.21;;;10.93;36.14
39954;BME280;25631;51.516;-0.470;2023-03-23T12:39:13;99601.67;;;11.29;36.02
39954;BME280;25631;51.516;-0.470;2023-03-23T12:41:57;99605.96;;;11.17;35.92
39954;BME280;25631;51.516;-0.470;2023-03-23T12:44:41;99604.30;;;11.86;35.67
39954;BME280;25631;51.516;-0.470;2023-03-23T12:47:32;99594.26;;;11.35;35.29
39954;BME280;25631;51.516;-0.470;2023-03-23T12:50:15;99564.60;;;11.62;34.65
39954;BME280;25631;51.516;-0.470;2023-03-23T12:52:55;99558.12;;;11.69;34.61
39954;BME280;25631;51.516;-0.470;2023-03-23T12:55:37;99559.30;;;12.93;34.22
39954;BME280;25631;51.516;-0.470;2023-03-23T12:58:18;99549.40;;;11.86;34.12
39954;BME280;25631;51.516;-0.470;2023-03-23T13:00:59;99540.49;;;12.06;33.61
39954;BME280;25631;51.516;-0.470;2023-03-23T13:03:40;99549.38;;;12.53;33.99
39954;BME280;25631;51.516;-0.470;2023-03-23T13:06:22;99559.47;;;12.56;33.00
39954;BME280;25631;51.516;-0.470;2023-03-23T13:09:04;99565.15;;;12.51;33.47
39954;BME280;25631;51.516;-0.470;2023-03-23T13:11:42;99566.78;;;11.88;33.30
39954;BME280;25631;51.516;-0.470;2023-03-23T13:14:27;99583.47;;;11.10;34.24
39954;BME280;25631;51.516;-0.470;2023-03-23T13:17:16;99575.41;;;11.22;33.96
39954;BME280;25631;51.516;-0.470;2023-03-23T13:20:15;99558.55;;;12.31;33.97
39954;BME280;25631;51.516;-0.470;2023-03-23T13:22:59;99558.34;;;12.94;33.44
39954;BME280;25631;51.516;-0.470;2023-03-23T13:25:46;99562.26;;;12.23;32.53
39954;BME280;25631;51.516;-0.470;2023-03-23T13:28:26;99555.90;;;12.44;32.94
39954;BME280;25631;51.516;-0.470;2023-03-23T13:31:12;99554.68;;;12.25;32.72
39954;BME280;25631;51.516;-0.470;2023-03-23T13:33:50;99552.60;;;12.22;33.18
39954;BME280;25631;51.516;-0.470;2023-03-23T13:36:30;99539.93;;;11.97;32.89
39954;BME280;25631;51.516;-0.470;2023-03-23T13:39:20;99536.83;;;12.35;32.95
39954;BME280;25631;51.516;-0.470;2023-03-23T13:42:19;99539.85;;;11.53;33.73
39954;BME280;25631;51.516;-0.470;2023-03-23T13:45:06;99539.71;;;12.22;33.83
39954;BME280;25631;51.516;-0.470;2023-03-23T13:47:43;99526.47;;;12.39;33.35
39954;BME280;25631;51.516;-0.470;2023-03-23T13:50:29;99522.89;;;12.13;32.93
39954;BME280;25631;51.516;-0.470;2023-03-23T13:53:14;99529.17;;;11.99;32.52
39954;BME280;25631;51.516;-0.470;2023-03-23T13:56:04;99536.62;;;11.63;33.04
39954;BME280;25631;51.516;-0.470;2023-03-23T13:58:46;99520.20;;;12.21;33.14
39954;BME280;25631;51.516;-0.470;2023-03-23T14:01:32;99557.92;;;11.87;33.22
39954;BME280;25631;51.516;-0.470;2023-03-23T14:04:14;99547.54;;;10.44;33.71
39954;BME280;25631;51.516;-0.470;2023-03-23T14:06:51;99535.85;;;11.41;33.69